createdAt,value
2018-09-29T06:01:19.310Z,4.67
2018-09-29T06:03:48.023Z,4.30
2018-09-29T06:06:16.158Z,3.97
2018-09-29T06:08:44.973Z,3.40
2018-09-29T06:11:13.088Z,4.73
2018-09-29T06:13:42.970Z,3.93
2018-09-29T06:16:11.417Z,3.90
2018-09-29T06:18:39.575Z,4.50
2018-09-29T06:21:08.030Z,4.27
2018-09-29T06:23:36.291Z,3.50
2018-09-29T06:26:04.456Z,3.93
2018-09-29T06:28:33.060Z,4.23
2018-09-29T06:31:01.706Z,5.10
2018-09-29T06:33:30.056Z,4.90
2018-09-29T06:35:58.379Z,4.43
2018-09-29T06:38:26.751Z,5.03
2018-09-29T06:40:56.528Z,3.63
2018-09-29T06:43:25.314Z,4.50
2018-09-29T06:45:56.418Z,5.23
2018-09-29T06:48:25.516Z,3.70
2018-09-29T06:50:53.768Z,3.83
2018-09-29T06:53:24.320Z,4.10
2018-09-29T06:55:53.198Z,4.67
2018-09-29T06:58:22.216Z,4.27
2018-09-29T07:00:52.114Z,4.47
2018-09-29T07:03:20.698Z,4.67
2018-09-29T07:05:52.906Z,4.27
2018-09-29T07:08:22.870Z,3.90
2018-09-29T07:10:51.483Z,4.20
2018-09-29T07:13:20.186Z,3.50
2018-09-29T07:15:48.552Z,4.20
2018-09-29T07:18:18.982Z,4.70
2018-09-29T07:20:48.322Z,4.80
2018-09-29T07:23:16.357Z,4.77
2018-09-29T07:25:45.329Z,4.70
2018-09-29T07:28:13.305Z,4.40
2018-09-29T07:30:41.618Z,4.83
2018-09-29T07:33:09.656Z,4.27
2018-09-29T07:35:37.698Z,4.00
2018-09-29T07:38:06.078Z,5.50
2018-09-29T07:40:34.130Z,5.00
2018-09-29T07:43:02.416Z,5.03
2018-09-29T07:45:30.766Z,4.40
2018-09-29T07:47:58.988Z,5.20
2018-09-29T07:50:26.995Z,4.57
2018-09-29T07:52:55.342Z,4.80
2018-09-29T07:55:23.390Z,5.90
2018-09-29T07:57:51.601Z,4.87
2018-09-29T08:00:20.390Z,5.07
2018-09-29T08:02:48.378Z,5.17
2018-09-29T08:05:16.368Z,5.00
2018-09-29T08:07:44.388Z,5.20
2018-09-29T08:10:12.385Z,5.10
2018-09-29T08:12:40.421Z,5.40
2018-09-29T08:15:08.440Z,5.50
2018-09-29T08:17:36.476Z,5.10
2018-09-29T08:20:05.276Z,4.70
2018-09-29T08:22:33.492Z,5.27
2018-09-29T08:25:01.522Z,5.47
2018-09-29T08:27:29.899Z,5.17
2018-09-29T08:29:57.914Z,5.07
2018-09-29T08:32:25.922Z,4.77
2018-09-29T08:34:53.902Z,6.43
2018-09-29T08:37:21.899Z,6.17
2018-09-29T08:39:50.264Z,4.90
2018-09-29T08:42:18.249Z,5.43
2018-09-29T08:44:46.341Z,5.07
2018-09-29T08:47:14.336Z,5.60
2018-09-29T08:49:42.337Z,5.70
2018-09-29T08:52:10.584Z,5.30
2018-09-29T08:54:39.195Z,5.50
2018-09-29T08:57:07.557Z,5.60
2018-09-29T08:59:35.555Z,5.00
2018-09-29T09:02:03.558Z,4.73
2018-09-29T09:04:31.613Z,6.10
2018-09-29T09:06:59.639Z,6.20
2018-09-29T09:09:27.705Z,6.20
2018-09-29T09:11:55.698Z,7.73
2018-09-29T09:14:23.673Z,7.60
2018-09-29T09:16:51.820Z,6.13
2018-09-29T09:19:19.821Z,6.70
2018-09-29T09:21:47.793Z,7.97
2018-09-29T09:24:15.891Z,6.87
2018-09-29T09:26:44.207Z,8.20
2018-09-29T09:29:12.302Z,9.30
2018-09-29T09:31:40.378Z,9.10
2018-09-29T09:34:08.377Z,8.33
2018-09-29T09:36:44.518Z,8.60
2018-09-29T09:39:13.500Z,8.17
2018-09-29T09:41:41.448Z,9.40
2018-09-29T09:44:09.438Z,10.70
2018-09-29T09:46:37.462Z,9.00
2018-09-29T09:49:06.520Z,9.63
2018-09-29T09:51:34.501Z,8.50
2018-09-29T09:54:04.261Z,9.53
2018-09-29T09:56:32.337Z,8.50
2018-09-29T09:59:00.799Z,8.50
2018-09-29T10:01:34.860Z,8.70
2018-09-29T10:04:02.972Z,9.40
2018-09-29T10:06:31.083Z,8.93
2018-09-29T10:08:59.194Z,8.17
2018-09-29T10:11:27.563Z,8.03
2018-09-29T10:13:55.609Z,10.50
2018-09-29T10:16:23.834Z,8.17
2018-09-29T10:18:52.056Z,9.33
2018-09-29T10:21:20.761Z,8.50
2018-09-29T10:23:48.778Z,9.60
2018-09-29T10:26:16.760Z,8.30
2018-09-29T10:28:44.948Z,9.13
2018-09-29T10:31:13.051Z,9.20
2018-09-29T10:33:41.021Z,8.30
2018-09-29T10:36:09.014Z,8.80
2018-09-29T10:38:37.049Z,8.60
2018-09-29T10:41:05.403Z,8.03
2018-09-29T10:43:33.662Z,9.07
2018-09-29T10:46:01.724Z,8.43
2018-09-29T10:48:29.721Z,7.90
2018-09-29T10:50:57.791Z,7.70
2018-09-29T10:53:25.814Z,7.30
2018-09-29T10:55:53.852Z,8.40
2018-09-29T10:58:21.853Z,8.03
2018-09-29T11:00:49.901Z,7.53
2018-09-29T11:03:18.185Z,7.27
2018-09-29T11:05:46.811Z,7.90
2018-09-29T11:08:15.240Z,7.60
2018-09-29T11:10:43.239Z,7.93
2018-09-29T11:13:11.258Z,7.40
2018-09-29T11:15:39.362Z,8.33
2018-09-29T11:18:07.818Z,8.70
2018-09-29T11:20:35.856Z,8.40
2018-09-29T11:23:04.217Z,8.77
2018-09-29T11:25:32.273Z,9.10
2018-09-29T11:28:00.277Z,8.80
2018-09-29T11:30:28.617Z,9.40
2018-09-29T11:32:56.969Z,9.30
2018-09-29T11:35:24.952Z,9.80
2018-09-29T11:37:53.074Z,9.17
2018-09-29T11:40:21.770Z,8.57
2018-09-29T11:42:49.760Z,9.10
2018-09-29T11:45:17.779Z,7.70
2018-09-29T11:47:45.790Z,9.70
2018-09-29T11:50:14.559Z,9.03
2018-09-29T11:52:42.624Z,10.07
2018-09-29T11:55:10.732Z,9.70
2018-09-29T11:57:38.812Z,10.07
2018-09-29T12:00:06.940Z,8.93
2018-09-29T12:02:34.998Z,9.17
2018-09-29T12:05:03.022Z,7.60
2018-09-29T12:07:31.262Z,8.07
2018-09-29T12:09:59.251Z,7.27
2018-09-29T12:12:27.233Z,7.77
2018-09-29T12:14:55.250Z,7.57
2018-09-29T12:17:23.321Z,7.90
2018-09-29T12:19:51.545Z,6.43
2018-09-29T12:22:19.594Z,6.60
2018-09-29T12:24:47.520Z,5.83
2018-09-29T12:27:15.483Z,6.63
2018-09-29T12:29:43.512Z,7.00
2018-09-29T12:32:11.563Z,6.60
2018-09-29T12:34:39.582Z,6.73
2018-09-29T12:37:07.753Z,6.67
2018-09-29T12:39:35.662Z,7.50
2018-09-29T12:42:03.678Z,6.43
2018-09-29T12:44:35.589Z,7.67
2018-09-29T12:47:03.521Z,7.40
2018-09-29T12:49:31.554Z,7.70
2018-09-29T12:51:59.653Z,6.23
2018-09-29T12:54:27.605Z,8.30
2018-09-29T12:56:55.660Z,6.90
2018-09-29T12:59:23.666Z,7.63
2018-09-29T13:01:51.988Z,7.03
2018-09-29T13:04:20.599Z,7.60
2018-09-29T13:06:48.591Z,6.00
2018-09-29T13:09:16.830Z,5.63
2018-09-29T13:11:44.906Z,6.10
2018-09-29T13:14:12.976Z,5.40
2018-09-29T13:16:41.530Z,5.47
2018-09-29T13:19:09.556Z,6.03
2018-09-29T13:21:37.555Z,5.60
2018-09-29T13:24:05.588Z,4.87
2018-09-29T13:26:33.877Z,5.23
2018-09-29T13:29:01.940Z,6.23
2018-09-29T13:31:30.047Z,5.90
2018-09-29T13:33:58.287Z,5.33
2018-09-29T13:36:26.677Z,5.10
2018-09-29T13:38:54.763Z,5.47
2018-09-29T13:41:22.737Z,5.23
2018-09-29T13:43:50.793Z,5.27
2018-09-29T13:46:19.153Z,6.30
2018-09-29T13:48:47.243Z,5.77
2018-09-29T13:51:15.262Z,6.43
2018-09-29T13:53:43.357Z,5.70
2018-09-29T13:56:11.342Z,5.63
2018-09-29T13:58:40.134Z,5.30
2018-09-29T14:01:08.143Z,5.27
2018-09-29T14:03:36.195Z,5.90
2018-09-29T14:06:04.235Z,5.53
2018-09-29T14:08:32.316Z,6.00
2018-09-29T14:11:00.297Z,5.47
2018-09-29T14:13:28.552Z,5.60
2018-09-29T14:15:56.822Z,5.87
2018-09-29T14:18:24.850Z,6.20
2018-09-29T14:20:52.870Z,5.67
2018-09-29T14:23:20.959Z,5.70
2018-09-29T14:25:49.433Z,5.93
2018-09-29T14:28:17.713Z,6.20
2018-09-29T14:30:45.727Z,5.53
2018-09-29T14:33:13.734Z,6.00
2018-09-29T14:35:41.772Z,6.10
2018-09-29T14:38:10.066Z,5.70
2018-09-29T14:40:40.184Z,5.63
2018-09-29T14:43:09.207Z,6.03
2018-09-29T14:45:37.320Z,5.70
2018-09-29T14:48:06.285Z,5.17
2018-09-29T14:50:34.587Z,6.20
2018-09-29T14:53:04.152Z,6.23
2018-09-29T14:55:32.199Z,6.10
2018-09-29T14:58:00.275Z,5.63
2018-09-29T15:00:28.246Z,5.63
2018-09-29T15:02:56.325Z,5.60
2018-09-29T15:05:24.435Z,5.67
2018-09-29T15:07:52.498Z,5.60
2018-09-29T15:10:20.678Z,5.90
2018-09-29T15:12:56.923Z,5.00
2018-09-29T15:15:29.780Z,6.00
2018-09-29T15:17:57.724Z,6.90
2018-09-29T15:20:26.666Z,7.00
2018-09-29T15:22:55.238Z,6.17
2018-09-29T15:25:23.219Z,5.70
2018-09-29T15:27:51.226Z,5.60
2018-09-29T15:30:19.793Z,6.77
2018-09-29T15:32:47.834Z,5.80
2018-09-29T15:35:16.016Z,6.17
2018-09-29T15:37:45.490Z,5.57
2018-09-29T15:40:13.550Z,6.30
2018-09-29T15:42:41.676Z,5.53
2018-09-29T15:45:10.895Z,5.60
2018-09-29T15:47:38.860Z,5.70
2018-09-29T15:50:07.155Z,4.40
2018-09-29T15:52:38.051Z,5.43
2018-09-29T15:55:06.138Z,5.40
2018-09-29T15:57:34.408Z,5.03
2018-09-29T16:00:06.919Z,5.30
2018-09-29T16:02:34.888Z,5.53
2018-09-29T16:05:03.710Z,5.23
2018-09-29T16:07:32.685Z,5.67
2018-09-29T16:10:01.141Z,5.90
2018-09-29T16:12:29.111Z,4.63
2018-09-29T16:14:57.429Z,5.27
2018-09-29T16:17:25.529Z,5.13
2018-09-29T16:19:53.584Z,4.57
2018-09-29T16:22:21.580Z,5.10
2018-09-29T16:24:51.189Z,5.27
2018-09-29T16:27:19.219Z,4.37
2018-09-29T16:29:47.302Z,4.57
2018-09-29T16:32:15.307Z,4.80
2018-09-29T16:34:43.337Z,5.10
2018-09-29T16:37:11.755Z,5.23
2018-09-29T16:39:40.036Z,4.70
2018-09-29T16:42:08.078Z,4.67
2018-09-29T16:44:37.360Z,5.00
2018-09-29T16:47:05.958Z,5.20
2018-09-29T16:49:35.097Z,4.53
2018-09-29T16:52:03.437Z,4.63
2018-09-29T16:54:32.548Z,4.10
2018-09-29T16:57:01.597Z,4.20
2018-09-29T16:59:30.441Z,4.00
2018-09-29T17:01:59.403Z,4.20
2018-09-29T17:04:27.749Z,4.20
2018-09-29T17:06:55.675Z,4.23
2018-09-29T17:09:23.779Z,4.23
2018-09-29T17:11:51.951Z,3.40
2018-09-29T17:14:21.333Z,4.30
2018-09-29T17:16:50.115Z,4.37
2018-09-29T17:19:18.973Z,3.80
2018-09-29T17:21:47.478Z,3.80
2018-09-29T17:24:21.327Z,3.50
2018-09-29T17:26:49.483Z,3.73
2018-09-29T17:29:17.610Z,3.10
2018-09-29T17:31:46.092Z,3.50
2018-09-29T17:34:14.626Z,3.50
2018-09-29T17:36:43.112Z,4.30
2018-09-29T17:39:11.828Z,3.90
2018-09-29T17:41:40.765Z,3.23
2018-09-29T17:44:08.861Z,4.03
2018-09-29T17:46:36.887Z,3.70
2018-09-29T17:49:05.554Z,3.40
2018-09-29T17:51:33.724Z,3.77
2018-09-29T17:54:01.850Z,3.23
2018-09-29T17:56:30.849Z,2.83
2018-09-29T17:58:59.131Z,3.20
2018-09-29T18:01:27.106Z,3.23
2018-09-29T18:03:55.498Z,3.50
2018-09-29T18:06:23.555Z,3.13
2018-09-29T18:08:51.683Z,3.53
2018-09-29T18:11:20.329Z,3.27
2018-09-29T18:13:50.217Z,3.23
2018-09-29T18:16:18.205Z,3.70
2018-09-29T18:18:46.276Z,3.30
2018-09-29T18:21:14.277Z,2.97
2018-09-29T18:23:42.262Z,3.00
2018-09-29T18:26:10.224Z,3.43
2018-09-29T18:28:38.286Z,3.70
2018-09-29T18:31:06.265Z,3.50
2018-09-29T18:33:34.241Z,3.17
2018-09-29T18:36:02.313Z,3.20
2018-09-29T18:38:30.235Z,3.10
2018-09-29T18:40:58.253Z,3.20
2018-09-29T18:43:26.745Z,3.57
2018-09-29T18:45:55.189Z,3.37
2018-09-29T18:48:23.191Z,3.60
2018-09-29T18:50:51.745Z,4.43
2018-09-29T18:53:19.774Z,3.33
2018-09-29T18:55:47.765Z,3.57
2018-09-29T18:58:15.988Z,4.20
2018-09-29T19:00:43.965Z,4.00
2018-09-29T19:03:12.285Z,3.97
2018-09-29T19:05:40.303Z,4.00
2018-09-29T19:08:08.342Z,3.50
2018-09-29T19:10:36.575Z,3.27
2018-09-29T19:13:04.563Z,3.50
2018-09-29T19:15:32.830Z,4.20
2018-09-29T19:18:01.041Z,3.53
2018-09-29T19:20:29.359Z,7.20
2018-09-29T19:22:57.570Z,3.20
2018-09-29T19:25:25.879Z,3.27
2018-09-29T19:27:53.940Z,3.80
2018-09-29T19:30:22.010Z,2.83
2018-09-29T19:32:50.005Z,3.10
2018-09-29T19:35:18.223Z,3.30
2018-09-29T19:37:46.281Z,4.17
2018-09-29T19:40:14.707Z,2.93
2018-09-29T19:42:45.846Z,3.40
2018-09-29T19:45:13.830Z,3.50
2018-09-29T19:47:41.799Z,3.70
2018-09-29T19:50:09.881Z,3.80
2018-09-29T19:52:38.202Z,3.33
2018-09-29T19:55:06.244Z,3.20
2018-09-29T19:57:34.242Z,2.90
2018-09-29T20:00:02.215Z,3.10
2018-09-29T20:02:30.372Z,3.30
2018-09-29T20:04:58.350Z,3.00
2018-09-29T20:07:26.345Z,3.10
2018-09-29T20:09:54.331Z,3.40
2018-09-29T20:12:22.350Z,3.60
2018-09-29T20:14:50.358Z,5.53
2018-09-29T20:17:18.381Z,6.03
2018-09-29T20:19:46.401Z,8.73
2018-09-29T20:22:14.426Z,7.30
2018-09-29T20:24:42.798Z,10.27
2018-09-29T20:27:10.763Z,6.80
2018-09-29T20:29:39.045Z,7.50
2018-09-29T20:32:07.058Z,7.27
2018-09-29T20:34:35.053Z,6.20
2018-09-29T20:37:03.125Z,5.03
2018-09-29T20:39:31.085Z,4.00
2018-09-29T20:41:59.057Z,3.63
2018-09-29T20:44:27.069Z,3.60
2018-09-29T20:46:55.063Z,3.43
2018-09-29T20:49:24.002Z,3.63
2018-09-29T20:51:52.446Z,3.00
2018-09-29T20:54:20.412Z,3.17
2018-09-29T20:56:48.411Z,3.17
2018-09-29T20:59:16.408Z,3.70
2018-09-29T21:01:44.398Z,3.67
2018-09-29T21:04:12.417Z,3.50
2018-09-29T21:06:40.436Z,3.23
2018-09-29T21:09:08.765Z,3.10
2018-09-29T21:11:37.140Z,3.53
2018-09-29T21:14:05.157Z,3.37
2018-09-29T21:16:33.177Z,4.20
2018-09-29T21:19:01.208Z,3.40
2018-09-29T21:21:29.234Z,3.83
2018-09-29T21:23:57.481Z,2.90
2018-09-29T21:26:25.449Z,3.30
2018-09-29T21:28:53.455Z,3.07
2018-09-29T21:31:21.654Z,3.90
2018-09-29T21:33:49.658Z,3.93
2018-09-29T21:36:17.694Z,4.00
2018-09-29T21:38:45.657Z,3.53
2018-09-29T21:41:13.661Z,3.30
2018-09-29T21:43:41.643Z,4.93
2018-09-29T21:46:09.838Z,5.00
2018-09-29T21:48:38.054Z,5.10
2018-09-29T21:51:06.205Z,5.20
2018-09-29T21:53:34.208Z,4.07
2018-09-29T21:56:02.214Z,3.40
2018-09-29T21:58:30.507Z,3.67
